Time;durP1;ratioP1;P1;durP2;ratioP2;P2;SDS_P1;SDS_P2;PMS_P1;PMS_P2;Temp;Humidity;BMP_temperature;BMP_pressure;BME280_temperature;BME280_humidity;BME280_pressure;Samples;Min_cycle;Max_cycle;Signal;HPM_P1;HPM_P2
2022/11/15 00:00:46;;;;;;;14.47;12.23;;;;;;;5.75;97.59;98523.50;1780126;80;20922;-60
2022/11/15 00:03:31;;;;;;;15.35;12.47;;;;;;;5.73;97.46;98527.45;1780475;80;20936;-60
2022/11/15 00:06:16;;;;;;;18.80;12.10;;;;;;;5.73;97.13;98523.47;1780189;80;20937;-61
2022/11/15 00:09:01;;;;;;;13.80;11.70;;;;;;;5.71;96.79;98525.05;1780366;80;21725;-61
2022/11/15 00:11:47;;;;;;;13.93;11.90;;;;;;;5.68;96.53;98510.11;1780269;80;21433;-61
2022/11/15 00:14:33;;;;;;;16.52;12.70;;;;;;;5.64;96.48;98511.14;1780051;80;20858;-61
2022/11/15 00:17:18;;;;;;;14.70;13.25;;;;;;;5.60;96.36;98503.91;1780369;80;20937;-60
2022/11/15 00:20:05;;;;;;;14.90;13.33;;;;;;;5.56;96.62;98505.45;1780365;80;20882;-61
2022/11/15 00:22:50;;;;;;;13.30;11.80;;;;;;;5.53;96.69;98504.87;1780133;80;21556;-61
2022/11/15 00:25:35;;;;;;;14.23;12.37;;;;;;;5.54;96.72;98504.34;1780203;80;20894;-61
2022/11/15 00:36:58;;;;;;;16.82;13.10;;;;;;;5.51;96.46;98488.38;1780114;80;21130;-59
2022/11/15 00:39:44;;;;;;;15.00;13.43;;;;;;;5.49;96.28;98479.84;1780163;80;21494;-61
2022/11/15 00:42:29;;;;;;;16.67;13.40;;;;;;;5.46;96.53;98465.72;1780391;80;20906;-61
2022/11/15 00:45:14;;;;;;;14.95;13.40;;;;;;;5.45;96.75;98470.77;1780242;80;20965;-61
2022/11/15 00:48:00;;;;;;;14.03;12.53;;;;;;;5.45;96.78;98468.63;1780154;80;20901;-60
2022/11/15 00:50:45;;;;;;;17.07;13.37;;;;;;;5.43;96.95;98463.57;1780353;80;21120;-59
2022/11/15 00:53:32;;;;;;;14.73;13.18;;;;;;;5.43;97.01;98456.93;1780067;80;20909;-59
2022/11/15 00:56:17;;;;;;;15.85;14.25;;;;;;;5.40;97.15;98452.09;1780244;80;20969;-60
2022/11/15 00:59:02;;;;;;;16.37;13.13;;;;;;;5.40;97.32;98442.80;1780232;80;20888;-60
2022/11/15 01:01:48;;;;;;;17.82;13.68;;;;;;;5.41;97.23;98443.61;1783902;79;21087;-60
2022/11/15 01:04:34;;;;;;;16.25;14.43;;;;;;;5.39;97.43;98437.20;1799747;79;21310;-59
2022/11/15 01:07:19;;;;;;;16.65;14.85;;;;;;;5.41;97.30;98434.31;1799680;79;20917;-60
2022/11/15 01:10:06;;;;;;;16.32;14.55;;;;;;;5.40;97.36;98430.84;1799743;79;21012;-60
2022/11/15 01:12:51;;;;;;;16.67;12.82;;;;;;;5.39;97.39;98425.79;1799602;79;20878;-61
2022/11/15 01:15:41;;;;;;;14.40;13.00;;;;;;;5.37;97.50;98422.03;1799763;79;20976;-59
2022/11/15 01:18:27;;;;;;;17.40;14.07;;;;;;;5.38;97.69;98422.32;1799817;79;21499;-60
2022/11/15 01:21:17;;;;;;;17.52;14.35;;;;;;;5.39;97.62;98407.97;1799510;79;21579;-60
2022/11/15 01:24:02;;;;;;;16.12;14.28;;;;;;;5.38;97.34;98413.02;1799775;79;20949;-59
2022/11/15 01:26:48;;;;;;;;;;;;;;;5.33;97.41;98411.62;1802344;79;21058;-60
2022/11/15 01:29:33;;;;;;;20.08;14.18;;;;;;;5.34;97.59;98421.22;1800134;79;20344;-60
2022/11/15 01:32:20;;;;;;;17.40;14.40;;;;;;;5.34;97.54;98413.25;1799778;79;21243;-60
2022/11/15 01:35:07;;;;;;;19.73;15.32;;;;;;;5.34;97.61;98416.42;1799844;79;20901;-60
2022/11/15 01:37:52;;;;;;;16.45;14.73;;;;;;;5.34;97.72;98411.92;1799774;79;20916;-60
2022/11/15 01:40:37;;;;;;;13.88;12.45;;;;;;;5.35;97.79;98409.52;1800075;79;20992;-61
2022/11/15 01:43:31;;;;;;;15.18;13.20;;;;;;;5.37;97.57;98403.44;1799693;79;21534;-60
2022/11/15 01:46:30;;;;;;;15.80;14.10;;;;;;;5.36;97.33;98403.17;1799750;79;21238;-60
2022/11/15 01:49:18;;;;;;;15.80;14.07;;;;;;;5.36;97.25;98404.50;1799668;79;21488;-60
2022/11/15 01:52:06;;;;;;;15.55;13.90;;;;;;;5.35;97.14;98387.47;1799726;79;20920;-61
2022/11/15 01:54:57;;;;;;;15.38;12.50;;;;;;;5.35;97.25;98388.79;1799923;79;21405;-61
2022/11/15 01:57:43;;;;;;;16.75;13.68;;;;;;;5.34;97.30;98392.52;1799670;79;20961;-61
2022/11/15 02:00:29;;;;;;;15.38;13.78;;;;;;;5.32;97.47;98386.10;1799839;79;21389;-61
2022/11/15 02:03:17;;;;;;;16.32;14.63;;;;;;;5.34;97.55;98380.05;1799493;79;20936;-59
2022/11/15 02:06:03;;;;;;;17.67;15.30;;;;;;;5.33;97.46;98381.59;1799893;79;20881;-60
2022/11/15 02:08:50;;;;;;;14.85;12.82;;;;;;;5.31;97.55;98387.17;1799704;79;20865;-59
2022/11/15 02:11:35;;;;;;;16.87;15.08;;;;;;;5.31;97.66;98389.02;1799635;79;20897;-59
2022/11/15 02:14:21;;;;;;;18.05;15.43;;;;;;;5.29;97.75;98383.16;1799751;79;21235;-61
2022/11/15 02:17:41;;;;;;;20.00;16.73;;;;;;;5.29;97.94;98378.65;1799887;79;21469;-61
2022/11/15 02:20:43;;;;;;;18.23;14.60;;;;;;;5.31;97.95;98387.69;1799680;79;20929;-60
2022/11/15 02:24:04;;;;;;;16.85;14.73;;;;;;;5.29;97.86;98382.63;1799892;79;21393;-61
2022/11/15 02:27:31;;;;;;;20.92;16.35;;;;;;;5.28;97.92;98380.20;1774758;79;20889;-60
2022/11/15 02:30:54;;;;;;;17.73;15.83;;;;;;;5.29;98.04;98388.47;1799828;79;21247;-61
2022/11/15 02:34:07;;;;;;;18.85;16.30;;;;;;;5.28;98.10;98385.00;1799499;79;20932;-60
2022/11/15 02:37:31;;;;;;;19.35;15.25;;;;;;;5.29;98.17;98386.62;1799587;79;20885;-60
2022/11/15 02:40:46;;;;;;;18.12;16.20;;;;;;;5.30;98.08;98384.77;1799655;79;20893;-59
2022/11/15 02:43:58;;;;;;;19.40;16.40;;;;;;;5.30;98.16;98375.47;1799735;79;20893;-60
2022/11/15 02:47:12;;;;;;;20.72;16.67;;;;;;;5.29;98.10;98372.53;1799670;79;21556;-62
2022/11/15 02:50:04;;;;;;;18.17;16.27;;;;;;;5.26;98.19;98374.34;1799545;79;21429;-61
2022/11/15 02:52:51;;;;;;;19.23;15.83;;;;;;;5.24;98.25;98370.61;1799705;79;20850;-62
2022/11/15 02:55:39;;;;;;;20.62;16.62;;;;;;;5.23;98.44;98374.30;1800029;79;28347;-61
2022/11/15 02:59:02;;;;;;;18.70;16.67;;;;;;;5.25;98.64;98368.22;1799720;79;20897;-62
2022/11/15 03:02:11;;;;;;;22.40;18.45;;;;;;;5.30;98.64;98369.61;1799669;79;21248;-60
2022/11/15 03:05:00;;;;;;;18.32;16.30;;;;;;;5.28;98.49;98367.73;1799611;79;21028;-60
2022/11/15 03:08:20;;;;;;;17.82;15.78;;;;;;;5.23;98.55;98361.02;1799680;79;20980;-61
2022/11/15 03:11:15;;;;;;;19.27;17.20;;;;;;;5.21;98.75;98356.48;1799655;79;20924;-62
2022/11/15 03:14:24;;;;;;;21.33;17.65;;;;;;;5.20;98.88;98354.91;1799898;79;21433;-61
2022/11/15 03:17:23;;;;;;;20.62;17.98;;;;;;;5.21;99.02;98359.14;1799667;79;21121;-60
2022/11/15 03:20:10;;;;;;;20.88;16.55;;;;;;;5.18;99.01;98351.66;1799562;79;20869;-61
2022/11/15 03:23:03;;;;;;;19.77;17.67;;;;;;;5.18;99.13;98357.52;1799670;79;20976;-60
2022/11/15 03:25:49;;;;;;;20.72;18.00;;;;;;;5.17;99.20;98343.95;1799662;79;20889;-61
2022/11/15 03:28:49;;;;;;;20.25;17.20;;;;;;;5.17;99.23;98344.77;1799672;79;20944;-61
2022/11/15 03:31:48;;;;;;;21.33;17.45;;;;;;;5.18;99.39;98338.94;1799672;79;21125;-60
2022/11/15 03:35:04;;;;;;;18.57;16.57;;;;;;;5.21;99.52;98332.59;1799813;79;21486;-60
2022/11/15 03:38:25;;;;;;;18.73;16.77;;;;;;;5.26;99.52;98328.67;1799648;79;20920;-61
2022/11/15 03:41:27;;;;;;;20.43;18.25;;;;;;;5.27;99.50;98321.52;1799627;79;20893;-60
2022/11/15 03:44:47;;;;;;;20.32;18.20;;;;;;;5.28;99.52;98323.10;1799676;79;20904;-60
2022/11/15 03:47:43;;;;;;;18.57;16.60;;;;;;;5.27;99.58;98328.96;1799653;79;21198;-60
2022/11/15 03:50:29;;;;;;;17.23;15.40;;;;;;;5.27;99.43;98317.01;1799714;79;20849;-60
2022/11/15 03:53:15;;;;;;;20.77;16.70;;;;;;;5.24;99.43;98301.56;1799658;79;20933;-60
2022/11/15 03:56:01;;;;;;;18.77;16.77;;;;;;;5.21;99.57;98310.02;1799775;79;20921;-60
2022/11/15 03:58:46;;;;;;;20.02;17.00;;;;;;;5.20;99.68;98301.79;1799807;79;21017;-61
2022/11/15 04:01:31;;;;;;;21.40;17.50;;;;;;;5.21;99.86;98295.92;1799894;79;21133;-60
2022/11/15 04:04:17;;;;;;;19.25;16.60;;;;;;;5.21;99.92;98302.05;1799523;79;20893;-60
2022/11/15 04:07:02;;;;;;;18.77;16.82;;;;;;;5.20;99.95;98299.13;1799790;79;20916;-60
2022/11/15 04:10:03;;;;;;;22.58;18.60;;;;;;;5.20;100.00;98295.67;1799755;79;20972;-60
2022/11/15 04:12:49;;;;;;;21.65;18.80;;;;;;;5.20;100.00;98293.82;1799651;79;20976;-61
2022/11/15 04:15:34;;;;;;;22.90;17.20;;;;;;;5.21;100.00;98291.95;1799758;79;22069;-61
2022/11/15 04:18:20;;;;;;;18.62;16.35;;;;;;;5.21;100.00;98291.42;1799566;79;20873;-60
2022/11/15 04:24:12;;;;;;;21.85;18.70;;;;;;;5.16;100.00;98287.93;1799734;79;20897;-59
2022/11/15 04:26:57;;;;;;;19.90;17.50;;;;;;;5.11;100.00;98284.66;1799994;79;21452;-61
2022/11/15 04:29:44;;;;;;;20.52;17.55;;;;;;;5.06;100.00;98285.95;1799631;79;21239;-61
2022/11/15 04:32:29;;;;;;;22.35;17.52;;;;;;;5.06;100.00;98283.30;1799915;79;21393;-60
2022/11/15 04:35:15;;;;;;;;;;;;;;;5.05;100.00;98278.22;1802313;79;20972;-60
2022/11/15 04:38:02;;;;;;;22.67;19.07;;;;;;;5.06;100.00;98274.53;1800113;79;20360;-60
2022/11/15 04:40:47;;;;;;;22.67;19.05;;;;;;;5.02;100.00;98270.22;1799615;79;20980;-58
2022/11/15 04:43:33;;;;;;;19.75;16.85;;;;;;;5.01;100.00;98268.63;1799621;79;20921;-59
2022/11/15 04:46:18;;;;;;;19.35;16.50;;;;;;;5.02;100.00;98268.89;1799554;79;20877;-59
2022/11/15 04:49:04;;;;;;;21.17;18.90;;;;;;;5.01;100.00;98265.98;1799762;79;20924;-59
2022/11/15 04:51:49;;;;;;;24.12;20.75;;;;;;;5.02;100.00;98274.20;1799722;79;20913;-62
2022/11/15 04:54:36;;;;;;;22.98;18.55;;;;;;;5.06;100.00;98266.04;1799845;79;21476;-60
2022/11/15 04:57:21;;;;;;;21.15;18.80;;;;;;;5.06;100.00;98263.39;1800096;79;21380;-62
2022/11/15 05:00:09;;;;;;;37.23;27.40;;;;;;;5.06;100.00;98262.06;1800190;79;21465;-61
2022/11/15 05:05:54;;;;;;;23.87;19.52;;;;;;;5.05;100.00;98257.79;1745158;79;20936;-61
2022/11/15 05:08:40;;;;;;;;;;;;;;;5.07;100.00;98250.89;1802512;79;20857;-61
2022/11/15 05:11:27;;;;;;;21.57;18.70;;;;;;;5.06;100.00;98252.77;1799697;79;21937;-60
2022/11/15 05:14:13;;;;;;;25.12;19.65;;;;;;;5.05;100.00;98254.33;1799618;79;20932;-61
2022/11/15 05:16:58;;;;;;;22.73;19.25;;;;;;;5.03;100.00;98251.92;1800138;79;21396;-61
2022/11/15 05:19:44;;;;;;;23.70;18.67;;;;;;;5.02;100.00;98252.97;1800127;79;21412;-60
2022/11/15 05:22:29;;;;;;;21.80;18.30;;;;;;;5.02;100.00;98254.81;1799874;79;21378;-60
2022/11/15 05:25:15;;;;;;;19.92;17.02;;;;;;;5.01;100.00;98256.69;1799915;79;21234;-61
2022/11/15 05:28:00;;;;;;;20.08;16.35;;;;;;;5.00;100.00;98257.72;1799863;79;21385;-61
2022/11/15 05:30:46;;;;;;;21.37;18.10;;;;;;;4.99;100.00;98261.45;1799773;79;20889;-62
2022/11/15 05:33:31;;;;;;;29.20;24.30;;;;;;;4.99;100.00;98256.14;1800010;79;20936;-60
2022/11/15 05:36:31;;;;;;;22.13;18.87;;;;;;;5.01;100.00;98257.20;1800115;79;21507;-62
2022/11/15 05:39:17;;;;;;;24.47;17.48;;;;;;;5.02;100.00;98250.83;1799849;79;21939;-60
2022/11/15 05:42:11;;;;;;;15.75;14.15;;;;;;;5.01;100.00;98252.70;1799775;79;21451;-61
2022/11/15 05:44:57;;;;;;;18.10;16.07;;;;;;;4.97;100.00;98242.28;1799914;79;20951;-60
2022/11/15 05:47:42;;;;;;;21.23;15.28;;;;;;;4.94;100.00;98243.31;1800002;79;20928;-62
2022/11/15 05:50:27;;;;;;;20.12;15.85;;;;;;;4.91;100.00;98242.48;1799906;79;20948;-61
2022/11/15 05:53:13;;;;;;;17.67;15.43;;;;;;;4.88;100.00;98241.12;1800007;79;21182;-61
2022/11/15 05:55:58;;;;;;;21.97;19.15;;;;;;;4.86;100.00;98245.88;1799785;79;20893;-61
2022/11/15 05:58:49;;;;;;;20.72;15.68;;;;;;;4.89;100.00;98237.43;1734900;79;20964;-62
2022/11/15 06:01:34;;;;;;;18.73;15.20;;;;;;;4.91;100.00;98234.52;1733429;82;21452;-61
2022/11/15 06:04:20;;;;;;;17.37;14.10;;;;;;;4.90;100.00;98229.72;1733015;82;21003;-61
2022/11/15 06:07:06;;;;;;;16.25;13.75;;;;;;;4.90;100.00;98227.07;1733098;82;21106;-61
2022/11/15 06:09:51;;;;;;;26.73;20.25;;;;;;;4.91;100.00;98228.69;1732939;82;20936;-62
2022/11/15 06:12:36;;;;;;;34.90;27.30;;;;;;;4.93;100.00;98226.58;1733369;82;21376;-61
2022/11/15 06:15:22;;;;;;;24.52;19.30;;;;;;;4.95;100.00;98232.44;1732978;82;20916;-60
2022/11/15 06:18:07;;;;;;;24.03;18.43;;;;;;;4.97;100.00;98222.92;1733266;82;20929;-60
2022/11/15 06:32:30;;;;;;;20.55;14.95;;;;;;;4.90;100.00;98222.31;1733331;82;20940;-61
2022/11/15 06:35:16;;;;;;;32.67;24.98;;;;;;;4.89;100.00;98214.06;1733001;82;21128;-60
2022/11/15 06:38:08;;;;;;;;;;;;;;;4.93;100.00;98213.83;1735508;82;21507;-61
2022/11/15 06:40:53;;;;;;;21.27;16.05;;;;;;;4.92;100.00;98205.09;1732991;82;20087;-62
2022/11/15 06:43:40;;;;;;;23.83;17.35;;;;;;;4.89;100.00;98204.25;1732890;82;20987;-61
2022/11/15 06:46:25;;;;;;;31.97;23.42;;;;;;;4.84;100.00;98201.02;1733122;82;20936;-61
2022/11/15 06:49:10;;;;;;;22.13;18.20;;;;;;;4.83;100.00;98205.22;1733113;82;21251;-60
2022/11/15 06:51:55;;;;;;;31.42;23.10;;;;;;;4.83;100.00;98198.59;1732954;82;20948;-60
2022/11/15 06:54:41;;;;;;;;;;;;;;;4.85;100.00;98200.50;1735560;82;20972;-62
2022/11/15 06:57:44;;;;;;;36.77;26.50;;;;;;;4.86;100.00;98196.77;1742055;80;20124;-58
2022/11/15 07:00:55;;;;;;;27.87;19.65;;;;;;;4.84;100.00;98198.88;1756737;80;20904;-60
2022/11/15 07:03:49;;;;;;;25.48;19.55;;;;;;;4.89;100.00;98204.77;1703870;84;20995;-60
2022/11/15 07:06:36;;;;;;;21.35;17.50;;;;;;;4.91;100.00;98192.86;1705290;84;20936;-61
2022/11/15 07:09:23;;;;;;;35.85;31.95;;;;;;;4.92;100.00;98194.98;1729644;82;21015;-61
2022/11/15 07:12:07;;;;;;;23.83;18.90;;;;;;;4.95;100.00;98197.94;1748012;80;21022;-60
2022/11/15 07:14:53;;;;;;;25.85;21.42;;;;;;;5.01;100.00;98202.27;1777000;80;21454;-63
2022/11/15 07:17:38;;;;;;;38.55;31.52;;;;;;;5.06;100.00;98190.89;1776684;80;21510;-60
2022/11/15 07:20:23;;;;;;;47.25;38.38;;;;;;;5.09;100.00;98195.69;1775873;80;20904;-60
2022/11/15 07:23:08;;;;;;;29.60;23.90;;;;;;;5.11;100.00;98194.38;1770478;80;21003;-60
2022/11/15 07:29:13;;;;;;;30.23;23.67;;;;;;;5.16;100.00;98182.48;1724606;82;21594;-61
2022/11/15 07:32:06;;;;;;;24.72;19.60;;;;;;;5.20;100.00;98175.65;1719685;82;20856;-61
2022/11/15 07:34:55;;;;;;;27.35;20.65;;;;;;;5.23;100.00;98173.80;1734944;82;20971;-60
2022/11/15 07:37:40;;;;;;;22.40;17.87;;;;;;;5.26;100.00;98177.80;1733337;82;20926;-60
2022/11/15 07:40:30;;;;;;;31.97;24.27;;;;;;;5.28;100.00;98171.19;1733381;81;20980;-62
2022/11/15 07:43:16;;;;;;;27.00;20.10;;;;;;;5.22;100.00;98164.24;1750665;80;20936;-62
2022/11/15 07:46:09;;;;;;;32.65;24.95;;;;;;;5.22;100.00;98158.94;1719080;81;21112;-62
2022/11/15 07:48:55;;;;;;;36.90;27.37;;;;;;;5.21;100.00;98158.64;1755850;80;20998;-62
2022/11/15 07:51:42;;;;;;;31.75;22.55;;;;;;;5.22;100.00;98159.45;1779434;80;21459;-59
2022/11/15 07:54:29;;;;;;;29.23;20.65;;;;;;;5.23;100.00;98159.19;1742378;79;20966;-61
2022/11/15 07:57:14;;;;;;;35.05;25.15;;;;;;;5.29;100.00;98148.91;1726338;81;21041;-60
2022/11/15 08:00:00;;;;;;;27.52;23.00;;;;;;;5.30;100.00;98145.17;1754701;81;21241;-61
2022/11/15 08:02:47;;;;;;;33.02;25.62;;;;;;;5.29;100.00;98139.61;1755114;81;21073;-61
2022/11/15 08:05:34;;;;;;;35.85;26.37;;;;;;;5.27;100.00;98143.05;1751933;80;21064;-60
2022/11/15 08:08:19;;;;;;;23.52;18.20;;;;;;;5.27;100.00;98147.03;1757366;80;21149;-60
2022/11/15 08:11:11;;;;;;;28.92;21.65;;;;;;;5.26;100.00;98141.43;1755550;80;20931;-62
2022/11/15 08:14:06;;;;;;;;;;;;;;;5.22;100.00;98133.70;1715337;81;50998;-61
2022/11/15 08:17:04;;;;;;;25.23;20.92;;;;;;;5.19;100.00;98120.92;1748133;80;20420;-61
2022/11/15 08:19:55;;;;;;;27.27;22.07;;;;;;;5.20;100.00;98135.01;1755854;80;20924;-61
2022/11/15 08:22:48;;;;;;;25.68;20.43;;;;;;;5.20;100.00;98127.84;1754972;81;20880;-60
2022/11/15 08:25:34;;;;;;;30.23;21.93;;;;;;;5.24;100.00;98130.78;1756087;81;20986;-59
2022/11/15 08:28:20;;;;;;;28.57;21.12;;;;;;;5.27;100.00;98135.60;1770693;80;21203;-60
2022/11/15 08:31:06;;;;;;;;;;;;;;;5.28;100.00;98136.67;1753455;80;21075;-62
2022/11/15 08:33:51;;;;;;;22.27;18.55;;;;;;;5.27;100.00;98116.49;1727966;80;20077;-59
2022/11/15 08:36:37;;;;;;;28.35;20.50;;;;;;;5.29;100.00;98113.05;1785482;80;28064;-61
2022/11/15 08:39:22;;;;;;;28.83;19.92;;;;;;;5.29;100.00;98115.70;1763035;80;21436;-61
2022/11/15 08:42:11;;;;;;;28.55;20.45;;;;;;;5.32;100.00;98116.51;1755315;81;21220;-61
2022/11/15 08:44:57;;;;;;;22.95;18.40;;;;;;;5.36;100.00;98116.30;1688652;83;21461;-60
2022/11/15 08:47:42;;;;;;;22.32;17.20;;;;;;;5.44;100.00;98111.83;1718836;83;21097;-59
2022/11/15 08:50:28;;;;;;;25.45;19.77;;;;;;;5.53;100.00;98114.28;1693807;84;21000;-59
2022/11/15 08:53:13;;;;;;;25.55;19.87;;;;;;;5.58;100.00;98112.22;1724869;83;22021;-58
2022/11/15 08:55:58;;;;;;;27.32;19.60;;;;;;;5.60;100.00;98111.95;1718747;81;22008;-60
2022/11/15 08:58:44;;;;;;;25.12;19.50;;;;;;;5.59;100.00;98109.81;1747997;80;20987;-60
2022/11/15 09:01:29;;;;;;;23.73;18.82;;;;;;;5.64;100.00;98105.87;1745242;81;20972;-60
2022/11/15 09:04:15;;;;;;;28.00;21.60;;;;;;;5.70;100.00;98100.07;1746449;80;20964;-60
2022/11/15 09:07:02;;;;;;;25.48;20.32;;;;;;;5.78;100.00;98099.58;1745303;80;21003;-60
2022/11/15 09:09:47;;;;;;;23.00;18.57;;;;;;;5.85;100.00;98098.33;1757908;80;21429;-60
2022/11/15 09:12:32;;;;;;;24.37;19.27;;;;;;;5.88;99.99;98089.04;1738944;80;20995;-60
2022/11/15 09:15:18;;;;;;;21.70;18.73;;;;;;;5.89;99.58;98093.28;1744322;82;21065;-60
2022/11/15 09:18:05;;;;;;;25.02;20.27;;;;;;;5.89;99.54;98086.11;1744143;82;21110;-60
2022/11/15 09:20:59;;;;;;;31.77;23.18;;;;;;;5.92;99.40;98084.28;1745240;82;21473;-61
2022/11/15 09:23:44;;;;;;;27.37;20.40;;;;;;;5.95;99.43;98074.99;1745456;82;21213;-60
2022/11/15 09:26:31;;;;;;;24.80;18.90;;;;;;;5.98;99.20;98077.92;1745459;82;21019;-60
2022/11/15 09:29:18;;;;;;;28.30;19.60;;;;;;;5.95;99.12;98080.31;1726548;82;21241;-59
2022/11/15 09:32:06;;;;;;;27.62;21.42;;;;;;;5.96;99.31;98083.22;1715324;83;21003;-60
2022/11/15 09:34:58;;;;;;;31.17;22.58;;;;;;;6.02;99.41;98082.20;1747539;80;21078;-59
2022/11/15 09:37:43;;;;;;;25.82;20.10;;;;;;;6.08;99.33;98075.84;1760788;80;21131;-60
2022/11/15 09:40:31;;;;;;;24.32;18.45;;;;;;;6.17;99.13;98076.97;1739912;82;21145;-59
2022/11/15 09:43:33;;;;;;;28.77;20.40;;;;;;;6.24;98.56;98070.08;1739693;82;21022;-60
2022/11/15 09:46:55;;;;;;;28.67;20.48;;;;;;;6.25;98.29;98066.34;1747726;80;20967;-61
2022/11/15 09:49:25;;;;;;;29.65;19.57;;;;;;;6.27;98.25;98065.02;1743802;80;21562;-59
2022/11/15 09:51:57;;;;;;;26.17;19.73;;;;;;;6.35;98.25;98064.53;1751287;80;21883;-58
2022/11/15 09:54:37;;;;;;;22.42;17.65;;;;;;;6.43;97.98;98060.02;1750703;80;21049;-59
2022/11/15 09:57:13;;;;;;;21.20;16.77;;;;;;;6.47;97.24;98062.45;1741770;82;21114;-60
2022/11/15 09:59:51;;;;;;;25.50;18.67;;;;;;;6.46;96.99;98061.36;1731865;80;21145;-62
2022/11/15 10:02:48;;;;;;;23.42;17.42;;;;;;;6.52;97.02;98061.12;1736232;81;21082;-60
2022/11/15 10:05:21;;;;;;;25.72;18.07;;;;;;;6.61;96.18;98056.89;1734151;81;21796;-60
2022/11/15 10:08:22;;;;;;;25.08;18.12;;;;;;;6.67;95.81;98057.16;1730986;82;20963;-58
2022/11/15 10:10:58;;;;;;;27.10;19.92;;;;;;;6.66;94.91;98047.59;1726526;81;20975;-60
2022/11/15 10:14:27;;;;;;;24.98;19.50;;;;;;;6.74;95.03;98044.39;1875940;75;22612;-60
2022/11/15 10:17:27;;;;;;;25.37;18.87;;;;;;;6.71;94.86;98044.91;1838570;77;20908;-61
2022/11/15 10:20:16;;;;;;;26.05;19.65;;;;;;;6.74;94.61;98037.73;1841363;77;21876;-60
2022/11/15 10:22:59;;;;;;;29.18;20.27;;;;;;;6.82;94.24;98031.91;1846048;77;20943;-66
2022/11/15 10:25:34;;;;;;;25.43;19.70;;;;;;;6.86;94.20;98024.17;1836055;77;20864;-62
2022/11/15 10:28:16;;;;;;;24.82;19.12;;;;;;;6.89;94.01;98013.80;1828003;77;21552;-60
2022/11/15 10:30:47;;;;;;;26.33;20.08;;;;;;;6.93;93.94;98011.92;1839872;77;20960;-60
2022/11/15 10:33:36;;;;;;;25.85;19.95;;;;;;;6.97;93.83;98011.68;1846002;77;20958;-66
2022/11/15 10:36:18;;;;;;;27.32;20.15;;;;;;;7.00;93.90;98014.59;1842831;77;20920;-60
2022/11/15 10:38:54;;;;;;;24.90;20.27;;;;;;;7.02;93.49;98011.13;1849766;77;21643;-60
2022/11/15 10:41:34;;;;;;;25.62;19.48;;;;;;;7.02;93.36;98014.34;1833879;77;21033;-62
2022/11/15 10:44:20;;;;;;;30.62;20.20;;;;;;;7.02;93.35;98005.02;1845213;77;21055;-62
2022/11/15 10:46:58;;;;;;;29.10;20.48;;;;;;;7.03;93.41;98003.94;1853769;77;21055;-60
2022/11/15 10:49:29;;;;;;;27.93;19.62;;;;;;;7.03;93.20;98000.75;1848593;77;21509;-60
2022/11/15 10:52:19;;;;;;;26.62;19.95;;;;;;;7.08;93.16;98001.28;1839140;77;20958;-61
2022/11/15 10:55:03;;;;;;;30.97;22.25;;;;;;;7.10;92.73;97993.29;1844069;77;20919;-60
2022/11/15 10:57:36;;;;;;;30.80;21.77;;;;;;;7.00;92.56;97988.48;1853349;77;21455;-60
2022/11/15 11:00:30;;;;;;;28.90;20.92;;;;;;;6.88;92.59;97985.56;1852522;77;21250;-61
2022/11/15 11:03:02;;;;;;;30.40;21.70;;;;;;;6.85;92.80;97984.76;1853532;77;20958;-61
2022/11/15 11:05:38;;;;;;;33.78;23.10;;;;;;;6.84;93.02;97977.86;1855302;77;20916;-59
2022/11/15 11:08:12;;;;;;;32.40;23.73;;;;;;;6.94;92.76;97980.25;1855342;77;21002;-60
2022/11/15 11:10:39;;;;;;;34.08;23.85;;;;;;;7.08;92.47;97977.31;1810178;79;20994;-59
2022/11/15 11:13:18;;;;;;;28.60;22.62;;;;;;;7.19;92.55;97966.90;1778345;79;21721;-60
2022/11/15 11:15:45;;;;;;;29.20;21.95;;;;;;;7.32;91.98;97969.83;1774421;80;20845;-60
2022/11/15 11:18:18;;;;;;;29.10;22.60;;;;;;;7.36;91.42;97957.56;1803740;78;20951;-60
2022/11/15 11:20:53;;;;;;;30.10;21.77;;;;;;;7.47;91.49;97959.65;1803042;79;20924;-61
2022/11/15 11:23:31;;;;;;;29.30;21.95;;;;;;;7.55;90.49;97951.91;1803374;79;21067;-61
2022/11/15 11:26:51;;;;;;;33.25;22.80;;;;;;;7.55;90.03;97949.78;1802647;79;21174;-59
2022/11/15 11:30:01;;;;;;;31.05;23.05;;;;;;;7.57;90.25;97947.11;1801866;79;21427;-61
2022/11/15 11:32:51;;;;;;;31.17;22.37;;;;;;;7.62;89.37;97942.29;1802732;79;21502;-60
2022/11/15 11:35:41;;;;;;;32.65;22.22;;;;;;;7.55;89.04;97945.25;1802961;79;21059;-61
2022/11/15 11:38:35;;;;;;;27.87;21.37;;;;;;;7.45;89.25;97943.14;1802069;79;20967;-60
2022/11/15 11:41:12;;;;;;;30.32;23.30;;;;;;;7.45;89.59;97939.14;1801978;79;21463;-60
2022/11/15 11:44:09;;;;;;;32.67;23.02;;;;;;;7.62;89.52;97934.30;1803024;79;20924;-60
2022/11/15 11:46:58;;;;;;;30.17;23.47;;;;;;;7.83;89.39;97927.81;1824693;78;20868;-59
2022/11/15 11:49:42;;;;;;;34.88;24.50;;;;;;;8.15;89.04;97919.36;1835806;78;20936;-58
2022/11/15 11:52:29;;;;;;;29.77;24.40;;;;;;;8.48;88.03;97915.97;1831215;78;20888;-59
2022/11/15 11:55:05;;;;;;;36.63;26.23;;;;;;;8.69;86.83;97910.73;1834199;78;21235;-59
2022/11/15 11:57:46;;;;;;;33.78;24.65;;;;;;;8.84;85.96;97906.61;1834145;78;21109;-61
2022/11/15 12:06:28;;;;;;;41.58;27.17;;;;;;;9.17;83.00;97896.94;1831454;78;21059;-59
2022/11/15 12:09:32;;;;;;;34.95;26.70;;;;;;;9.23;83.11;97891.78;1801820;79;22100;-61
2022/11/15 12:12:05;;;;;;;35.08;25.15;;;;;;;9.39;82.79;97886.56;1802767;79;20928;-60
2022/11/15 12:14:47;;;;;;;32.28;24.20;;;;;;;9.56;81.75;97880.19;1808842;78;20873;-61
2022/11/15 12:17:14;;;;;;;30.00;22.45;;;;;;;9.66;81.23;97871.81;1809904;79;21507;-60
2022/11/15 12:19:42;;;;;;;26.42;20.43;;;;;;;9.76;80.78;97865.77;1810113;79;20881;-60
2022/11/15 12:22:45;;;;;;;26.15;21.15;;;;;;;9.81;79.62;97863.57;1771973;80;21308;-60
2022/11/15 12:25:37;;;;;;;28.45;21.10;;;;;;;9.79;79.35;97861.73;1729684;83;20977;-60
2022/11/15 12:28:19;;;;;;;26.15;21.02;;;;;;;9.78;79.08;97858.78;1729775;83;20944;-60
2022/11/15 12:31:03;;;;;;;26.45;21.40;;;;;;;9.81;79.15;97846.98;1744900;82;21064;-60
2022/11/15 12:33:45;;;;;;;25.15;18.27;;;;;;;9.87;78.88;97841.80;1745028;82;20891;-59
2022/11/15 12:36:37;;;;;;;24.43;20.62;;;;;;;9.93;78.20;97843.87;1748379;80;21705;-60
2022/11/15 12:39:09;;;;;;;29.40;21.40;;;;;;;9.89;77.92;97846.89;1756654;80;20934;-60
2022/11/15 12:41:39;;;;;;;29.98;22.27;;;;;;;9.89;77.83;97840.20;1759806;80;20935;-60
2022/11/15 12:44:31;;;;;;;35.08;25.60;;;;;;;9.87;77.64;97824.42;1750809;80;21530;-60
2022/11/15 12:47:07;;;;;;;36.77;25.75;;;;;;;9.83;77.79;97830.63;1769227;80;20995;-59
2022/11/15 12:49:42;;;;;;;30.95;23.30;;;;;;;9.73;77.93;97813.41;1745554;80;21142;-60
2022/11/15 12:52:09;;;;;;;33.05;27.27;;;;;;;9.59;78.08;97814.11;1771802;80;21122;-60
2022/11/15 12:54:44;;;;;;;36.33;27.70;;;;;;;9.44;78.47;97810.84;1815332;77;20967;-60
2022/11/15 12:57:22;;;;;;;44.18;30.60;;;;;;;9.32;78.86;97815.27;1808174;77;21074;-59
2022/11/15 13:00:01;;;;;;;41.92;29.00;;;;;;;9.16;79.39;97811.16;1828742;77;20941;-60
2022/11/15 13:02:40;;;;;;;37.40;29.35;;;;;;;9.09;80.09;97809.38;1830484;77;21759;-60
2022/11/15 13:05:19;;;;;;;45.23;29.65;;;;;;;9.05;80.43;97809.70;1821641;77;21098;-63
2022/11/15 13:07:57;;;;;;;39.00;28.27;;;;;;;9.06;80.90;97808.63;1835748;77;20940;-61
2022/11/15 13:10:32;;;;;;;36.98;28.90;;;;;;;9.13;81.08;97798.39;1829634;77;20927;-58
2022/11/15 13:13:10;;;;;;;58.10;33.13;;;;;;;9.23;80.96;97795.58;1760320;80;20999;-59
2022/11/15 13:15:56;;;;;;;42.38;31.42;;;;;;;9.31;80.91;97793.63;1843247;77;21230;-59
2022/11/15 13:18:36;;;;;;;47.20;30.48;;;;;;;9.39;80.81;97797.01;1836647;77;20837;-60
2022/11/15 13:22:50;;;;;;;43.25;30.08;;;;;;;9.43;80.57;97802.56;1811949;79;20990;-60
2022/11/15 13:23:37;;;;;;;39.58;29.70;;;;;;;9.46;80.43;97797.45;1817912;77;21082;-61
2022/11/15 13:26:12;;;;;;;48.58;31.42;;;;;;;9.42;80.38;97795.08;1839313;77;20931;-60
2022/11/15 13:28:50;;;;;;;40.43;28.47;;;;;;;9.40;80.46;97794.57;1851409;77;21116;-61
2022/11/15 13:31:28;;;;;;;45.03;29.05;;;;;;;9.33;80.53;97797.33;1850886;77;21548;-60
2022/11/15 13:34:00;;;;;;;44.77;31.45;;;;;;;9.22;80.62;97782.52;1850037;77;20868;-60